Kilcolgan, Ireland
Current Conditions -  °F | °C
As of 5:00 PM on Tuesday 27 Jan 2015 (Local Time) from EINN Reporting Station
Drizzle Drizzle  
Wind Chill: 41°   Ceiling: 2200
Heat Index: 45°   Visibility: 6mi
Dew Point: 45°   Wind: 7mph
Humidity: 100%   Direction: 160°SSE
Pressure: 30.18"   Gusts: NA
Location:  53.2°N, 8.87°W
Report Text: EINN 271700Z 16006KT 9999 -DZ FEW011 SCT017 BKN022 07/07 Q1022 TEMPO 5000M BKN012
Loading
Personal Weather Stations






























Interactive Weather Map New forecast layout! Learn more

10-Day Weather Forecast

Advertisements
Track Severe Weather on mobile